Main page
METAR-TAF:

METAR-TAF

Airports :

Cheyenne County Municipal Airport

St. Francis, Kansas, United States

latitude: 39-45-40N, longitude: 101-47-45W, elevation: 3411 ft

Current weather observation

The report was made 39 minutes ago, at 15:35 UTC
Wind 32 mph from the South with gusts up to 45 mph
Temperature 79°F
Humidity 58%
Pressure 30.15 in. Hg
Visibility: 10 miles
Clear sky

METAR: KSYF 201535Z AUTO 18028G39KT 10SM CLR 26/17 A3015 RMK AO2 PK WND 18039/27

Time: 11:14 (16:14 UTC)


TAF: missing

Weather observations and forecasts of more than 4000 airports (METAR and TAF reports).

The available stations are represented by yellow and red dots on the map.

Hover mouse over dot to see the name of the station.

Then click to see weather observations and forecasts.

To change the map : click on the green buttons with a black cross to zoom in, on the green button with a dash to zoom out, or on the green arrows for adjacent maps.


METAR-TAF: